Time;durP1;ratioP1;P1;durP2;ratioP2;P2;SDS_P1;SDS_P2;PMS_P1;PMS_P2;Temp;Humidity;BMP_temperature;BMP_pressure;BME280_temperature;BME280_humidity;BME280_pressure;Samples;Min_cycle;Max_cycle;Signal;HPM_P1;HPM_P2
2022/05/22 00:00:13;;;;;;;0.32;0.32;;;;;;;;;;6334401;22;20014;-56
2022/05/22 00:02:40;;;;;;;2.20;1.08;;;;;;;;;;6331226;22;20003;-51
2022/05/22 00:05:05;;;;;;;0.00;0.00;;;;;;;;;;6333668;22;20019;-52
2022/05/22 00:07:30;;;;;;;0.00;0.00;;;;;;;;;;6330664;22;20075;-54
2022/05/22 00:09:56;;;;;;;0.03;0.03;;;;;;;;;;6333548;22;20015;-54
2022/05/22 00:12:21;;;;;;;0.10;0.10;;;;;;;;;;6331268;22;20022;-52
2022/05/22 00:14:46;;;;;;;0.15;0.15;;;;;;;;;;6333911;22;20050;-54
2022/05/22 00:17:11;;;;;;;0.10;0.10;;;;;;;;;;6331716;22;20010;-54
2022/05/22 00:19:37;;;;;;;0.00;0.00;;;;;;;;;;6332734;22;20071;-54
2022/05/22 00:22:03;;;;;;;0.00;0.00;;;;;;;;;;6332375;22;20416;-56
2022/05/22 00:24:29;;;;;;;0.05;0.05;;;;;;;;;;6333769;22;20045;-51
2022/05/22 00:26:55;;;;;;;0.00;0.00;;;;;;;;;;6330768;22;20371;-54
2022/05/22 00:29:20;;;;;;;0.00;0.00;;;;;;;;;;6332266;22;20014;-54
2022/05/22 00:31:45;;;;;;;0.25;0.25;;;;;;;;;;6302315;22;20094;-52
2022/05/22 00:34:12;;;;;;;0.05;0.05;;;;;;;;;;6330947;22;20018;-50
2022/05/22 00:36:37;;;;;;;0.25;0.20;;;;;;;;;;6330113;22;20653;-54
2022/05/22 00:39:03;;;;;;;0.20;0.20;;;;;;;;;;6331583;22;20465;-51
2022/05/22 00:41:29;;;;;;;0.35;0.35;;;;;;;;;;6328822;22;20011;-53
2022/05/22 00:43:55;;;;;;;0.00;0.00;;;;;;;;;;6331497;22;20022;-51
2022/05/22 00:46:21;;;;;;;0.00;0.00;;;;;;;;;;6329230;22;20015;-53
2022/05/22 00:48:47;;;;;;;0.10;0.10;;;;;;;;;;6330478;22;20013;-55
2022/05/22 00:51:17;;;;;;;0.10;0.10;;;;;;;;;;6329274;22;20078;-53
2022/05/22 00:53:42;;;;;;;;;;;;;;;;;;6332448;22;20011;-55
2022/05/22 00:56:10;;;;;;;0.00;0.00;;;;;;;;;;6329639;22;20445;-53
2022/05/22 00:58:35;;;;;;;0.10;0.10;;;;;;;;;;6329754;22;20011;-53
2022/05/22 01:01:01;;;;;;;0.00;0.00;;;;;;;;;;6325593;22;20057;-54
2022/05/22 01:03:27;;;;;;;0.08;0.08;;;;;;;;;;6331876;22;20598;-52
2022/05/22 01:05:53;;;;;;;0.30;0.30;;;;;;;;;;6329224;22;20015;-54
2022/05/22 01:08:18;;;;;;;0.00;0.00;;;;;;;;;;6331292;22;20007;-54
2022/05/22 01:10:45;;;;;;;0.10;0.10;;;;;;;;;;6330398;22;20022;-55
2022/05/22 01:13:14;;;;;;;0.00;0.00;;;;;;;;;;6332689;22;20006;-53
2022/05/22 01:15:40;;;;;;;0.00;0.00;;;;;;;;;;6329904;22;20413;-52
2022/05/22 01:18:05;;;;;;;0.00;0.00;;;;;;;;;;6331632;22;20189;-53
2022/05/22 01:20:30;;;;;;;0.30;0.30;;;;;;;;;;6330599;22;20007;-52
2022/05/22 01:22:55;;;;;;;0.10;0.10;;;;;;;;;;6303911;22;20007;-52
2022/05/22 01:25:21;;;;;;;0.13;0.13;;;;;;;;;;6330381;22;20034;-55
2022/05/22 01:27:46;;;;;;;0.00;0.00;;;;;;;;;;6330679;22;19999;-50
2022/05/22 01:30:19;;;;;;;0.70;0.70;;;;;;;;;;6331263;22;20036;-53
2022/05/22 01:32:45;;;;;;;1.77;0.63;;;;;;;;;;6326690;22;20011;-52
2022/05/22 01:35:12;;;;;;;0.17;0.17;;;;;;;;;;6330221;22;20018;-53
2022/05/22 01:37:38;;;;;;;0.10;0.10;;;;;;;;;;6303260;22;20071;-53
2022/05/22 01:40:03;;;;;;;0.00;0.00;;;;;;;;;;6330217;22;20027;-54
2022/05/22 01:42:29;;;;;;;0.03;0.03;;;;;;;;;;6303174;22;20007;-54
2022/05/22 01:44:54;;;;;;;0.45;0.45;;;;;;;;;;6330306;22;20019;-53
2022/05/22 01:47:19;;;;;;;0.20;0.20;;;;;;;;;;6330577;22;20037;-52
2022/05/22 01:49:45;;;;;;;0.00;0.00;;;;;;;;;;6329036;22;20003;-53
2022/05/22 01:52:10;;;;;;;0.05;0.05;;;;;;;;;;6332302;22;20055;-54
2022/05/22 01:54:35;;;;;;;2.72;1.45;;;;;;;;;;6329293;22;20452;-54
2022/05/22 01:57:01;;;;;;;0.25;0.10;;;;;;;;;;6331504;22;20011;-51
2022/05/22 01:59:26;;;;;;;0.13;0.13;;;;;;;;;;6329273;22;20011;-53
2022/05/22 02:01:51;;;;;;;0.45;0.45;;;;;;;;;;6330189;22;20041;-54
2022/05/22 02:04:17;;;;;;;0.22;0.22;;;;;;;;;;6328354;22;20007;-54
2022/05/22 02:09:26;;;;;;;0.10;0.10;;;;;;;;;;6330231;22;20044;-50
2022/05/22 02:11:51;;;;;;;0.17;0.17;;;;;;;;;;6330871;22;20011;-51
2022/05/22 02:14:17;;;;;;;0.03;0.03;;;;;;;;;;6330014;22;20115;-55
2022/05/22 02:16:42;;;;;;;0.00;0.00;;;;;;;;;;6331191;22;20652;-52
2022/05/22 02:19:07;;;;;;;0.10;0.10;;;;;;;;;;6329482;22;20054;-51
2022/05/22 02:21:32;;;;;;;0.10;0.10;;;;;;;;;;6330625;22;20007;-54
2022/05/22 02:23:58;;;;;;;0.00;0.00;;;;;;;;;;6330205;22;20007;-51
2022/05/22 02:26:23;;;;;;;0.10;0.10;;;;;;;;;;6303412;22;20027;-49
2022/05/22 02:28:48;;;;;;;0.00;0.00;;;;;;;;;;6328611;22;20433;-49
2022/05/22 02:31:14;;;;;;;0.10;0.10;;;;;;;;;;6330932;22;20438;-51
2022/05/22 02:33:40;;;;;;;0.20;0.20;;;;;;;;;;6328860;22;20030;-54
2022/05/22 02:36:06;;;;;;;0.43;0.43;;;;;;;;;;6331959;22;20361;-54
2022/05/22 02:38:32;;;;;;;0.10;0.10;;;;;;;;;;6328201;22;20031;-55
2022/05/22 02:40:58;;;;;;;1.92;0.30;;;;;;;;;;6331199;22;20010;-52
2022/05/22 02:43:23;;;;;;;0.95;0.38;;;;;;;;;;6329602;22;20061;-51
2022/05/22 02:45:48;;;;;;;0.32;0.32;;;;;;;;;;6330087;22;20203;-53
2022/05/22 02:48:14;;;;;;;0.45;0.13;;;;;;;;;;6329415;22;20023;-49
2022/05/22 02:50:39;;;;;;;0.00;0.00;;;;;;;;;;6247217;22;20019;-53
2022/05/22 02:53:05;;;;;;;0.00;0.00;;;;;;;;;;6254857;22;20000;-54
2022/05/22 02:55:30;;;;;;;0.00;0.00;;;;;;;;;;6268145;22;20132;-55
2022/05/22 02:57:55;;;;;;;1.40;0.40;;;;;;;;;;6268298;22;20038;-51
2022/05/22 03:00:23;;;;;;;0.00;0.00;;;;;;;;;;6266799;22;20010;-54
2022/05/22 03:02:49;;;;;;;0.00;0.00;;;;;;;;;;6264057;22;20012;-52
2022/05/22 03:05:14;;;;;;;0.10;0.10;;;;;;;;;;6269074;22;20097;-54
2022/05/22 03:07:40;;;;;;;0.10;0.10;;;;;;;;;;6266135;22;20532;-50
2022/05/22 03:10:06;;;;;;;0.00;0.00;;;;;;;;;;6268936;22;20007;-52
2022/05/22 03:12:31;;;;;;;0.30;0.30;;;;;;;;;;6268028;22;20011;-53
2022/05/22 03:14:58;;;;;;;0.00;0.00;;;;;;;;;;6267941;22;20012;-50
2022/05/22 03:17:24;;;;;;;0.22;0.22;;;;;;;;;;6268212;22;20023;-51
2022/05/22 03:19:50;;;;;;;0.00;0.00;;;;;;;;;;6265416;22;20004;-51
2022/05/22 03:22:15;;;;;;;0.10;0.10;;;;;;;;;;6266469;22;20023;-51
2022/05/22 03:24:41;;;;;;;0.10;0.10;;;;;;;;;;6266398;22;20019;-51
2022/05/22 03:27:07;;;;;;;0.03;0.03;;;;;;;;;;6268208;22;20061;-53
2022/05/22 03:29:33;;;;;;;0.00;0.00;;;;;;;;;;6267733;22;20012;-50
2022/05/22 03:31:58;;;;;;;0.03;0.03;;;;;;;;;;6267992;22;20031;-54
2022/05/22 03:34:24;;;;;;;0.17;0.17;;;;;;;;;;6268315;22;20039;-52
2022/05/22 03:36:49;;;;;;;0.20;0.20;;;;;;;;;;6266507;22;20019;-53
2022/05/22 03:39:14;;;;;;;0.30;0.30;;;;;;;;;;6268697;22;20018;-53
2022/05/22 03:41:41;;;;;;;0.43;0.20;;;;;;;;;;6266121;22;20012;-53
2022/05/22 03:44:06;;;;;;;0.10;0.10;;;;;;;;;;6269394;22;20023;-52
2022/05/22 03:46:32;;;;;;;0.10;0.10;;;;;;;;;;6266981;22;20195;-54
2022/05/22 03:48:57;;;;;;;0.00;0.00;;;;;;;;;;6269440;22;20016;-52
2022/05/22 03:51:23;;;;;;;0.10;0.10;;;;;;;;;;6268361;22;20023;-52
2022/05/22 03:53:48;;;;;;;0.20;0.20;;;;;;;;;;6266678;22;20012;-54
2022/05/22 03:56:15;;;;;;;0.10;0.10;;;;;;;;;;6267229;22;20019;-49
2022/05/22 03:58:41;;;;;;;0.00;0.00;;;;;;;;;;6267446;22;20015;-52
2022/05/22 04:01:07;;;;;;;0.10;0.10;;;;;;;;;;6267386;22;20007;-54
2022/05/22 04:03:34;;;;;;;3.63;1.17;;;;;;;;;;6267703;22;20015;-52
2022/05/22 04:06:01;;;;;;;0.10;0.10;;;;;;;;;;6268518;22;20071;-53
2022/05/22 04:08:26;;;;;;;0.17;0.17;;;;;;;;;;6270868;22;20380;-54
2022/05/22 04:10:52;;;;;;;0.10;0.10;;;;;;;;;;6267926;22;20017;-55
2022/05/22 04:13:17;;;;;;;0.00;0.00;;;;;;;;;;6270099;22;20011;-51
2022/05/22 04:15:42;;;;;;;0.00;0.00;;;;;;;;;;6267889;22;20032;-53
2022/05/22 04:18:08;;;;;;;0.70;0.35;;;;;;;;;;6271106;22;20015;-53
2022/05/22 04:20:33;;;;;;;0.00;0.00;;;;;;;;;;6265155;22;20007;-50
2022/05/22 04:25:53;;;;;;;0.00;0.00;;;;;;;;;;6268799;22;20030;-52
2022/05/22 04:28:18;;;;;;;2.75;0.45;;;;;;;;;;6268486;22;20008;-53
2022/05/22 04:30:44;;;;;;;0.10;0.10;;;;;;;;;;6269295;22;20382;-55
2022/05/22 04:33:09;;;;;;;0.00;0.00;;;;;;;;;;6269922;22;20016;-55
2022/05/22 04:35:35;;;;;;;0.98;0.32;;;;;;;;;;6269877;22;20008;-53
2022/05/22 04:38:03;;;;;;;0.10;0.10;;;;;;;;;;6269029;22;20683;-55
2022/05/22 04:40:29;;;;;;;0.00;0.00;;;;;;;;;;6270075;22;20468;-51
2022/05/22 04:42:54;;;;;;;0.20;0.20;;;;;;;;;;6268973;22;20063;-54
2022/05/22 04:45:19;;;;;;;0.00;0.00;;;;;;;;;;6270710;22;20027;-50
2022/05/22 04:47:45;;;;;;;0.45;0.45;;;;;;;;;;6268221;22;20140;-51
2022/05/22 04:50:12;;;;;;;0.20;0.20;;;;;;;;;;6270616;22;20019;-49
2022/05/22 04:52:37;;;;;;;0.10;0.10;;;;;;;;;;6267555;22;20012;-55
2022/05/22 04:55:03;;;;;;;0.08;0.08;;;;;;;;;;6270993;22;20038;-50
2022/05/22 04:57:28;;;;;;;0.47;0.47;;;;;;;;;;6267596;22;20023;-53
2022/05/22 04:59:53;;;;;;;0.03;0.03;;;;;;;;;;6268564;22;20004;-52
2022/05/22 05:02:19;;;;;;;0.75;0.57;;;;;;;;;;6267694;22;20012;-52
2022/05/22 05:04:44;;;;;;;0.00;0.00;;;;;;;;;;6267263;22;20813;-51
2022/05/22 05:07:09;;;;;;;0.00;0.00;;;;;;;;;;6268017;22;20011;-51
2022/05/22 05:09:35;;;;;;;0.03;0.03;;;;;;;;;;6268314;22;20014;-52
2022/05/22 05:12:01;;;;;;;0.10;0.10;;;;;;;;;;6268181;22;20028;-54
2022/05/22 05:14:26;;;;;;;2.28;1.60;;;;;;;;;;6269419;22;20609;-53
2022/05/22 05:16:51;;;;;;;0.00;0.00;;;;;;;;;;6266746;22;20490;-55
2022/05/22 05:19:17;;;;;;;0.00;0.00;;;;;;;;;;6241401;22;20436;-53
2022/05/22 05:21:42;;;;;;;0.08;0.08;;;;;;;;;;6267770;22;20042;-53
2022/05/22 05:24:07;;;;;;;0.00;0.00;;;;;;;;;;6270603;22;20041;-51
2022/05/22 05:26:35;;;;;;;0.20;0.20;;;;;;;;;;6267515;22;20070;-53
2022/05/22 05:29:00;;;;;;;0.00;0.00;;;;;;;;;;6270040;22;20086;-54
2022/05/22 05:31:25;;;;;;;0.38;0.38;;;;;;;;;;6268990;22;20283;-53
2022/05/22 05:33:51;;;;;;;0.05;0.05;;;;;;;;;;6268602;22;20316;-54
2022/05/22 05:36:16;;;;;;;0.93;0.40;;;;;;;;;;6268742;22;20019;-53
2022/05/22 05:38:41;;;;;;;0.00;0.00;;;;;;;;;;6267496;22;20433;-51
2022/05/22 05:41:08;;;;;;;0.00;0.00;;;;;;;;;;6269927;22;20073;-54
2022/05/22 05:43:33;;;;;;;0.00;0.00;;;;;;;;;;6265648;22;20007;-51
2022/05/22 05:45:59;;;;;;;0.32;0.32;;;;;;;;;;6269410;22;20024;-52
2022/05/22 05:48:24;;;;;;;0.10;0.10;;;;;;;;;;6240527;22;20015;-51
2022/05/22 05:50:49;;;;;;;0.35;0.35;;;;;;;;;;6268634;22;20024;-53
2022/05/22 05:53:15;;;;;;;0.00;0.00;;;;;;;;;;6267256;22;20071;-53
2022/05/22 05:55:40;;;;;;;0.03;0.03;;;;;;;;;;6268997;22;20075;-54
2022/05/22 05:58:05;;;;;;;0.00;0.00;;;;;;;;;;6267468;22;20111;-52
2022/05/22 06:00:31;;;;;;;0.28;0.28;;;;;;;;;;6268953;22;20007;-53
2022/05/22 06:02:56;;;;;;;0.00;0.00;;;;;;;;;;6268661;22;19999;-52
2022/05/22 06:05:22;;;;;;;1.08;1.08;;;;;;;;;;6268112;22;20036;-50
2022/05/22 06:07:49;;;;;;;0.32;0.32;;;;;;;;;;6266953;22;20045;-54
2022/05/22 06:10:14;;;;;;;0.05;0.05;;;;;;;;;;6268494;22;20071;-55
2022/05/22 06:12:39;;;;;;;0.05;0.05;;;;;;;;;;6240682;22;20019;-49
2022/05/22 06:15:05;;;;;;;0.52;0.35;;;;;;;;;;6267398;22;20022;-54
2022/05/22 06:17:31;;;;;;;1.45;1.33;;;;;;;;;;6268109;22;20022;-53
2022/05/22 06:19:57;;;;;;;0.00;0.00;;;;;;;;;;6269083;22;20054;-51
2022/05/22 06:22:23;;;;;;;0.47;0.47;;;;;;;;;;6268366;22;20054;-52
2022/05/22 06:24:49;;;;;;;0.08;0.08;;;;;;;;;;6267903;22;20028;-54
2022/05/22 06:27:14;;;;;;;0.55;0.55;;;;;;;;;;6268601;22;20008;-51
2022/05/22 06:29:40;;;;;;;0.00;0.00;;;;;;;;;;6267280;22;20000;-53
2022/05/22 06:32:06;;;;;;;6.22;0.30;;;;;;;;;;6269136;22;20016;-52
2022/05/22 06:34:33;;;;;;;0.00;0.00;;;;;;;;;;6239413;22;20012;-55
2022/05/22 06:37:00;;;;;;;0.10;0.10;;;;;;;;;;6269024;22;20038;-54
2022/05/22 06:42:13;;;;;;;0.05;0.05;;;;;;;;;;6268915;22;20023;-51
2022/05/22 06:44:38;;;;;;;0.30;0.30;;;;;;;;;;6265884;22;20088;-51
2022/05/22 06:47:04;;;;;;;0.00;0.00;;;;;;;;;;6269673;22;20011;-51
2022/05/22 06:49:30;;;;;;;0.03;0.03;;;;;;;;;;6266745;22;20057;-52
2022/05/22 06:51:56;;;;;;;0.00;0.00;;;;;;;;;;6268598;22;20396;-55
2022/05/22 06:54:22;;;;;;;0.17;0.17;;;;;;;;;;6266751;22;20019;-54
2022/05/22 06:56:47;;;;;;;0.00;0.00;;;;;;;;;;6268299;22;20016;-53
2022/05/22 06:59:12;;;;;;;0.00;0.00;;;;;;;;;;6241002;22;20007;-55
2022/05/22 07:01:38;;;;;;;0.22;0.20;;;;;;;;;;6268447;22;20400;-55
2022/05/22 07:04:03;;;;;;;0.00;0.00;;;;;;;;;;6267446;22;20019;-55
2022/05/22 07:06:28;;;;;;;0.00;0.00;;;;;;;;;;6268492;22;20028;-54
2022/05/22 07:08:54;;;;;;;0.00;0.00;;;;;;;;;;6266443;22;20019;-50
2022/05/22 07:14:03;;;;;;;0.00;0.00;;;;;;;;;;6267077;22;20030;-54
2022/05/22 07:16:29;;;;;;;0.00;0.00;;;;;;;;;;6268180;22;20265;-53
2022/05/22 07:18:54;;;;;;;5.47;1.20;;;;;;;;;;6266622;22;20038;-52
2022/05/22 07:21:19;;;;;;;0.00;0.00;;;;;;;;;;6268970;22;20015;-53
2022/05/22 07:23:44;;;;;;;0.00;0.00;;;;;;;;;;6265739;22;20008;-50
2022/05/22 07:26:10;;;;;;;0.10;0.10;;;;;;;;;;6268999;22;20015;-54
2022/05/22 07:28:35;;;;;;;0.00;0.00;;;;;;;;;;6264571;22;20271;-51
2022/05/22 07:31:00;;;;;;;0.00;0.00;;;;;;;;;;6269951;22;20035;-51
2022/05/22 07:33:26;;;;;;;0.03;0.03;;;;;;;;;;6238601;22;20012;-52
2022/05/22 07:35:52;;;;;;;0.28;0.28;;;;;;;;;;6268309;22;20008;-50
2022/05/22 07:38:18;;;;;;;0.00;0.00;;;;;;;;;;6266639;22;20016;-54
2022/05/22 07:40:43;;;;;;;0.10;0.10;;;;;;;;;;6243319;22;20019;-52
2022/05/22 07:43:08;;;;;;;0.00;0.00;;;;;;;;;;6270540;22;20015;-54
2022/05/22 07:45:33;;;;;;;0.00;0.00;;;;;;;;;;6269990;22;20020;-54
2022/05/22 07:48:00;;;;;;;0.05;0.05;;;;;;;;;;6243201;22;20429;-54
2022/05/22 07:50:25;;;;;;;0.00;0.00;;;;;;;;;;6269486;22;20027;-52
2022/05/22 07:52:50;;;;;;;0.00;0.00;;;;;;;;;;6267925;22;20022;-52
2022/05/22 07:55:18;;;;;;;0.00;0.00;;;;;;;;;;6270760;22;20012;-48
2022/05/22 07:57:48;;;;;;;0.00;0.00;;;;;;;;;;6241086;22;20012;-54
2022/05/22 08:00:15;;;;;;;0.00;0.00;;;;;;;;;;6269562;22;20034;-53
2022/05/22 08:02:41;;;;;;;1.67;0.73;;;;;;;;;;6262875;22;20599;-54
2022/05/22 08:05:08;;;;;;;0.10;0.10;;;;;;;;;;6270486;22;20020;-54
2022/05/22 08:07:34;;;;;;;0.00;0.00;;;;;;;;;;6268775;22;20011;-53
2022/05/22 08:09:59;;;;;;;0.40;0.40;;;;;;;;;;6269642;22;20019;-54
2022/05/22 08:12:24;;;;;;;0.30;0.30;;;;;;;;;;6270252;22;20015;-50
2022/05/22 08:14:50;;;;;;;0.00;0.00;;;;;;;;;;6269981;22;20066;-52
2022/05/22 08:17:18;;;;;;;0.00;0.00;;;;;;;;;;6266733;22;20008;-55
2022/05/22 08:19:43;;;;;;;0.30;0.30;;;;;;;;;;6270090;22;20508;-52
2022/05/22 08:22:08;;;;;;;0.85;0.10;;;;;;;;;;6269354;22;20020;-50
2022/05/22 08:24:34;;;;;;;0.00;0.00;;;;;;;;;;6270111;22;20012;-53
2022/05/22 08:26:59;;;;;;;0.00;0.00;;;;;;;;;;6268942;22;20483;-56
2022/05/22 08:29:25;;;;;;;0.00;0.00;;;;;;;;;;6270690;22;20035;-51
2022/05/22 08:31:51;;;;;;;0.00;0.00;;;;;;;;;;6268257;22;20082;-52
2022/05/22 08:34:16;;;;;;;0.00;0.00;;;;;;;;;;6266993;22;20055;-53
2022/05/22 08:36:42;;;;;;;0.00;0.00;;;;;;;;;;6267542;22;20015;-54
2022/05/22 08:39:08;;;;;;;0.00;0.00;;;;;;;;;;6269104;22;20012;-52
2022/05/22 08:41:45;;;;;;;0.00;0.00;;;;;;;;;;6267590;22;20029;-53
2022/05/22 08:44:12;;;;;;;0.10;0.10;;;;;;;;;;6268866;22;20008;-54
2022/05/22 08:46:43;;;;;;;0.10;0.10;;;;;;;;;;6269728;22;20031;-55
2022/05/22 08:49:23;;;;;;;0.10;0.10;;;;;;;;;;6260665;22;20023;-55
2022/05/22 08:51:57;;;;;;;0.00;0.00;;;;;;;;;;6236798;22;20024;-53
2022/05/22 08:54:26;;;;;;;0.00;0.00;;;;;;;;;;6262218;22;20007;-53
2022/05/22 08:59:39;;;;;;;0.00;0.00;;;;;;;;;;6263276;22;20030;-54
2022/05/22 09:02:14;;;;;;;0.00;0.00;;;;;;;;;;6270101;22;20083;-55
2022/05/22 09:04:49;;;;;;;0.00;0.00;;;;;;;;;;6267412;22;20008;-53
2022/05/22 09:07:19;;;;;;;0.00;0.00;;;;;;;;;;6268277;22;20018;-55
2022/05/22 09:10:11;;;;;;;0.05;0.05;;;;;;;;;;6268750;22;20059;-56
2022/05/22 09:12:46;;;;;;;0.00;0.00;;;;;;;;;;6265221;22;20007;-53
2022/05/22 09:15:15;;;;;;;0.00;0.00;;;;;;;;;;6268013;22;20114;-53
2022/05/22 09:17:47;;;;;;;0.00;0.00;;;;;;;;;;6269775;22;20516;-55
2022/05/22 09:20:17;;;;;;;0.00;0.00;;;;;;;;;;6267840;22;20028;-54
2022/05/22 09:22:42;;;;;;;0.00;0.00;;;;;;;;;;6269843;22;20007;-56
2022/05/22 09:25:16;;;;;;;0.00;0.00;;;;;;;;;;6241606;22;20083;-54
2022/05/22 09:27:52;;;;;;;0.00;0.00;;;;;;;;;;6266663;22;20011;-55
2022/05/22 09:30:30;;;;;;;0.00;0.00;;;;;;;;;;6267379;22;20063;-53
2022/05/22 09:33:04;;;;;;;0.00;0.00;;;;;;;;;;6268214;22;20366;-52
2022/05/22 09:35:37;;;;;;;0.00;0.00;;;;;;;;;;6233844;22;22205;-54
2022/05/22 09:38:19;;;;;;;0.00;0.00;;;;;;;;;;6267021;22;20008;-55
2022/05/22 09:40:46;;;;;;;0.00;0.00;;;;;;;;;;6264478;22;20012;-53
2022/05/22 09:43:21;;;;;;;0.00;0.00;;;;;;;;;;6263271;22;20003;-54
2022/05/22 09:45:46;;;;;;;0.00;0.00;;;;;;;;;;6265504;22;20659;-55
2022/05/22 09:48:11;;;;;;;0.40;0.40;;;;;;;;;;6261995;22;20035;-54
2022/05/22 09:50:55;;;;;;;0.00;0.00;;;;;;;;;;6264888;22;20019;-54
2022/05/22 09:53:26;;;;;;;0.00;0.00;;;;;;;;;;6235994;22;20023;-56
2022/05/22 09:55:53;;;;;;;0.00;0.00;;;;;;;;;;6265326;22;20000;-57
2022/05/22 09:58:37;;;;;;;0.00;0.00;;;;;;;;;;6263196;22;20063;-55
2022/05/22 10:01:02;;;;;;;0.10;0.10;;;;;;;;;;6264224;22;20034;-54
2022/05/22 10:03:28;;;;;;;0.00;0.00;;;;;;;;;;6264356;22;20012;-53
2022/05/22 10:06:05;;;;;;;0.00;0.00;;;;;;;;;;6233564;22;20031;-52
2022/05/22 10:08:30;;;;;;;0.00;0.00;;;;;;;;;;6268225;22;20019;-57
2022/05/22 10:11:05;;;;;;;0.00;0.00;;;;;;;;;;6265455;22;20008;-53
2022/05/22 10:13:30;;;;;;;0.00;0.00;;;;;;;;;;6267340;22;20007;-53
2022/05/22 10:16:19;;;;;;;0.00;0.00;;;;;;;;;;6267119;22;20063;-51
2022/05/22 10:18:47;;;;;;;0.00;0.00;;;;;;;;;;6257909;22;20011;-51
2022/05/22 10:21:21;;;;;;;0.10;0.10;;;;;;;;;;6266095;22;20018;-56
2022/05/22 10:24:05;;;;;;;0.00;0.00;;;;;;;;;;6241479;22;20098;-54
2022/05/22 10:26:31;;;;;;;0.00;0.00;;;;;;;;;;6265748;22;20012;-55
2022/05/22 10:28:58;;;;;;;0.00;0.00;;;;;;;;;;6269566;22;20046;-56
2022/05/22 10:31:33;;;;;;;0.00;0.00;;;;;;;;;;6266941;22;20065;-51
2022/05/22 10:34:24;;;;;;;0.00;0.00;;;;;;;;;;6268535;22;20008;-52
2022/05/22 10:36:59;;;;;;;0.00;0.00;;;;;;;;;;6243100;22;20015;-52
2022/05/22 10:39:24;;;;;;;0.03;0.03;;;;;;;;;;6266619;22;20004;-54
2022/05/22 10:44:43;;;;;;;0.00;0.00;;;;;;;;;;6267928;22;20075;-56
2022/05/22 10:47:08;;;;;;;0.10;0.10;;;;;;;;;;6267318;22;20527;-53
2022/05/22 10:49:43;;;;;;;0.10;0.10;;;;;;;;;;6240920;22;20545;-54
2022/05/22 10:52:10;;;;;;;0.20;0.20;;;;;;;;;;6267019;22;20027;-53
2022/05/22 10:55:01;;;;;;;0.00;0.00;;;;;;;;;;6268723;22;20007;-55
2022/05/22 10:57:31;;;;;;;0.00;0.00;;;;;;;;;;6261363;22;20012;-56
2022/05/22 10:59:57;;;;;;;0.00;0.00;;;;;;;;;;6268811;22;20345;-56
2022/05/22 11:02:27;;;;;;;0.00;0.00;;;;;;;;;;6266923;22;20034;-55
2022/05/22 11:04:53;;;;;;;0.00;0.00;;;;;;;;;;6268743;22;20019;-55
2022/05/22 11:07:45;;;;;;;0.00;0.00;;;;;;;;;;6266386;22;20011;-55
2022/05/22 11:10:10;;;;;;;0.00;0.00;;;;;;;;;;6259741;22;20022;-53
2022/05/22 11:12:36;;;;;;;0.00;0.00;;;;;;;;;;6259666;22;20107;-56
2022/05/22 11:15:09;;;;;;;0.00;0.00;;;;;;;;;;6265963;22;20074;-56
2022/05/22 11:17:35;;;;;;;0.00;0.00;;;;;;;;;;6262812;22;20004;-54
2022/05/22 11:20:03;;;;;;;0.00;0.00;;;;;;;;;;6267409;22;20012;-56
2022/05/22 11:22:58;;;;;;;0.05;0.05;;;;;;;;;;6267987;22;20016;-55
2022/05/22 11:25:42;;;;;;;0.10;0.10;;;;;;;;;;6266037;22;20023;-55
2022/05/22 11:28:16;;;;;;;0.00;0.00;;;;;;;;;;6267504;22;20012;-57
2022/05/22 11:30:41;;;;;;;0.00;0.00;;;;;;;;;;6264767;22;20012;-53
2022/05/22 11:33:16;;;;;;;0.00;0.00;;;;;;;;;;6269727;22;20015;-56
2022/05/22 11:35:41;;;;;;;0.00;0.00;;;;;;;;;;6268505;22;20233;-56
2022/05/22 11:38:25;;;;;;;0.00;0.00;;;;;;;;;;6266603;22;20008;-53
2022/05/22 11:41:09;;;;;;;0.00;0.00;;;;;;;;;;6266764;22;20008;-57
2022/05/22 11:43:42;;;;;;;0.00;0.00;;;;;;;;;;6263821;22;20007;-56
2022/05/22 11:46:26;;;;;;;0.65;0.40;;;;;;;;;;6267921;22;20020;-53
2022/05/22 11:49:02;;;;;;;0.00;0.00;;;;;;;;;;6267334;22;20117;-55
2022/05/22 11:51:48;;;;;;;0.00;0.00;;;;;;;;;;6263196;22;20038;-54
2022/05/22 11:54:20;;;;;;;0.00;0.00;;;;;;;;;;6267897;22;20019;-55
2022/05/22 11:56:55;;;;;;;0.00;0.00;;;;;;;;;;6239069;22;20016;-55
2022/05/22 11:59:32;;;;;;;0.00;0.00;;;;;;;;;;6267399;22;20026;-56
2022/05/22 12:02:20;;;;;;;0.00;0.00;;;;;;;;;;6270024;22;20094;-55
2022/05/22 12:05:00;;;;;;;0.00;0.00;;;;;;;;;;6262906;22;20338;-58
2022/05/22 12:07:38;;;;;;;0.00;0.00;;;;;;;;;;6269032;22;20008;-54
2022/05/22 12:10:12;;;;;;;0.00;0.00;;;;;;;;;;6266730;22;20019;-58
2022/05/22 12:12:47;;;;;;;0.00;0.00;;;;;;;;;;6265759;22;20011;-56
2022/05/22 12:15:18;;;;;;;0.00;0.00;;;;;;;;;;6267032;22;20008;-53
2022/05/22 12:17:53;;;;;;;0.00;0.00;;;;;;;;;;6261643;22;20008;-57
2022/05/22 12:20:21;;;;;;;0.00;0.00;;;;;;;;;;6264332;22;20057;-57
2022/05/22 12:23:08;;;;;;;0.00;0.00;;;;;;;;;;6261519;22;20059;-57
2022/05/22 12:25:36;;;;;;;0.00;0.00;;;;;;;;;;6262365;22;20609;-56
2022/05/22 12:28:04;;;;;;;0.00;0.00;;;;;;;;;;6265659;22;20011;-57
2022/05/22 12:30:37;;;;;;;0.00;0.00;;;;;;;;;;6263627;22;20020;-56
2022/05/22 12:33:09;;;;;;;0.00;0.00;;;;;;;;;;6264771;22;20134;-57
2022/05/22 12:35:35;;;;;;;0.00;0.00;;;;;;;;;;6264998;22;20340;-55
2022/05/22 12:38:02;;;;;;;0.00;0.00;;;;;;;;;;6264308;22;20019;-57
2022/05/22 12:40:47;;;;;;;0.00;0.00;;;;;;;;;;6265679;22;20019;-55
2022/05/22 12:43:21;;;;;;;0.38;0.38;;;;;;;;;;6265315;22;20067;-57
2022/05/22 12:45:50;;;;;;;0.00;0.00;;;;;;;;;;6263271;22;20024;-57
2022/05/22 12:48:24;;;;;;;0.00;0.00;;;;;;;;;;6265636;22;20012;-56
2022/05/22 12:50:54;;;;;;;0.00;0.00;;;;;;;;;;6262789;22;20028;-57
2022/05/22 12:53:29;;;;;;;0.00;0.00;;;;;;;;;;6265690;22;20008;-57
2022/05/22 12:55:55;;;;;;;0.00;0.00;;;;;;;;;;6264867;22;20011;-54
2022/05/22 12:58:29;;;;;;;0.00;0.00;;;;;;;;;;6263950;22;20012;-56
2022/05/22 13:00:55;;;;;;;0.00;0.00;;;;;;;;;;6262847;22;20014;-56
2022/05/22 13:03:22;;;;;;;0.00;0.00;;;;;;;;;;6265767;22;20011;-56
2022/05/22 13:06:00;;;;;;;0.00;0.00;;;;;;;;;;6262437;22;20027;-55
2022/05/22 13:08:29;;;;;;;0.00;0.00;;;;;;;;;;6265579;22;20444;-57
2022/05/22 13:10:56;;;;;;;0.00;0.00;;;;;;;;;;6263269;22;20012;-55
2022/05/22 13:13:24;;;;;;;0.10;0.10;;;;;;;;;;6264360;22;20450;-57
2022/05/22 13:15:53;;;;;;;0.00;0.00;;;;;;;;;;6264039;22;20248;-56
2022/05/22 13:18:19;;;;;;;0.03;0.03;;;;;;;;;;6263876;22;20011;-55
2022/05/22 13:20:48;;;;;;;0.00;0.00;;;;;;;;;;6263814;22;20023;-55
2022/05/22 13:23:19;;;;;;;0.00;0.00;;;;;;;;;;6238252;22;20079;-57
2022/05/22 13:25:44;;;;;;;0.43;0.20;;;;;;;;;;6264896;22;20012;-57
2022/05/22 13:28:28;;;;;;;0.00;0.00;;;;;;;;;;6265825;22;20033;-56
2022/05/22 13:30:56;;;;;;;0.00;0.00;;;;;;;;;;6263376;22;20127;-58
2022/05/22 13:33:21;;;;;;;0.00;0.00;;;;;;;;;;6263606;22;20558;-57
2022/05/22 13:35:58;;;;;;;0.00;0.00;;;;;;;;;;6265277;22;20389;-58
2022/05/22 13:38:23;;;;;;;0.00;0.00;;;;;;;;;;6263891;22;20020;-56
2022/05/22 13:41:06;;;;;;;0.10;0.10;;;;;;;;;;6265319;22;20045;-57
2022/05/22 13:43:50;;;;;;;0.00;0.00;;;;;;;;;;6262627;22;20016;-56
2022/05/22 13:46:22;;;;;;;0.00;0.00;;;;;;;;;;6263668;22;20046;-55
2022/05/22 13:48:50;;;;;;;0.10;0.10;;;;;;;;;;6265922;22;20023;-55
2022/05/22 13:54:35;;;;;;;0.00;0.00;;;;;;;;;;6260710;22;20114;-57
2022/05/22 13:57:20;;;;;;;0.40;0.10;;;;;;;;;;6266122;22;20011;-57
2022/05/22 13:59:52;;;;;;;0.00;0.00;;;;;;;;;;6263311;22;20019;-56
2022/05/22 14:02:24;;;;;;;0.00;0.00;;;;;;;;;;6264373;22;20426;-56
2022/05/22 14:04:51;;;;;;;0.00;0.00;;;;;;;;;;6234820;22;20784;-56
2022/05/22 14:07:26;;;;;;;0.00;0.00;;;;;;;;;;6263616;22;20012;-57
2022/05/22 14:09:52;;;;;;;0.00;0.00;;;;;;;;;;6264823;22;20316;-57
2022/05/22 14:12:25;;;;;;;0.00;0.00;;;;;;;;;;6262217;22;20016;-57
2022/05/22 14:14:50;;;;;;;0.00;0.00;;;;;;;;;;6264770;22;20289;-56
2022/05/22 14:17:15;;;;;;;0.00;0.00;;;;;;;;;;6262633;22;20018;-56
2022/05/22 14:19:42;;;;;;;0.00;0.00;;;;;;;;;;6263868;22;20252;-56
2022/05/22 14:22:20;;;;;;;0.00;0.00;;;;;;;;;;6262040;22;20095;-57
2022/05/22 14:24:53;;;;;;;0.00;0.00;;;;;;;;;;6264970;22;20053;-55
2022/05/22 14:27:23;;;;;;;0.35;0.10;;;;;;;;;;6263650;22;20019;-57
2022/05/22 14:29:48;;;;;;;0.00;0.00;;;;;;;;;;6264268;22;20031;-56
2022/05/22 14:32:18;;;;;;;0.00;0.00;;;;;;;;;;6263908;22;20026;-56
2022/05/22 14:34:45;;;;;;;0.00;0.00;;;;;;;;;;6265279;22;20008;-57
2022/05/22 14:37:12;;;;;;;0.00;0.00;;;;;;;;;;6263353;22;20011;-57
2022/05/22 14:39:57;;;;;;;0.00;0.00;;;;;;;;;;6265184;22;20016;-57
2022/05/22 14:42:27;;;;;;;0.00;0.00;;;;;;;;;;6264430;22;20012;-55
2022/05/22 14:44:52;;;;;;;;;;;;;;;;;;6263583;22;20018;-56
2022/05/22 14:47:22;;;;;;;0.30;0.30;;;;;;;;;;6265522;22;19907;-56
2022/05/22 14:49:49;;;;;;;0.00;0.00;;;;;;;;;;6263248;22;20018;-56
2022/05/22 14:52:21;;;;;;;0.00;0.00;;;;;;;;;;6264920;22;20024;-56
2022/05/22 14:54:49;;;;;;;0.00;0.00;;;;;;;;;;6263006;22;20019;-56
2022/05/22 14:57:18;;;;;;;0.00;0.00;;;;;;;;;;6265010;22;20008;-57
2022/05/22 14:59:48;;;;;;;0.20;0.20;;;;;;;;;;6262712;22;20010;-57
2022/05/22 15:02:13;;;;;;;;;;;;;;;;;;6261462;22;20487;-56
2022/05/22 15:04:38;;;;;;;0.00;0.00;;;;;;;;;;6265067;22;19907;-57
2022/05/22 15:07:05;;;;;;;0.00;0.00;;;;;;;;;;6237663;22;20015;-56
2022/05/22 15:09:34;;;;;;;0.00;0.00;;;;;;;;;;6267232;22;20023;-58